createdAt,value
2023-02-07T00:00:19.120Z,5.05
2023-02-07T00:02:47.555Z,4.80
2023-02-07T00:05:14.762Z,3.45
2023-02-07T00:07:41.863Z,4.10
2023-02-07T00:10:09.204Z,3.83
2023-02-07T00:12:37.341Z,3.78
2023-02-07T00:15:04.667Z,4.13
2023-02-07T00:17:32.225Z,3.85
2023-02-07T00:19:59.023Z,4.68
2023-02-07T00:22:25.682Z,3.70
2023-02-07T00:24:52.327Z,4.40
2023-02-07T00:27:19.315Z,3.33
2023-02-07T00:29:47.946Z,3.30
2023-02-07T00:32:14.615Z,4.35
2023-02-07T00:34:42.056Z,4.32
2023-02-07T00:37:09.831Z,3.95
2023-02-07T00:39:38.843Z,4.85
2023-02-07T00:42:06.419Z,5.05
2023-02-07T00:44:33.531Z,4.10
2023-02-07T00:47:01.817Z,3.78
2023-02-07T00:49:28.556Z,3.50
2023-02-07T00:51:56.944Z,4.20
2023-02-07T00:54:23.766Z,4.95
2023-02-07T00:56:52.228Z,3.70
2023-02-07T00:59:20.832Z,3.22
2023-02-07T01:01:47.987Z,4.07
2023-02-07T01:04:17.480Z,2.83
2023-02-07T01:06:45.164Z,4.40
2023-02-07T01:09:12.150Z,3.33
2023-02-07T01:11:39.632Z,4.15
2023-02-07T01:14:06.480Z,4.72
2023-02-07T01:16:35.176Z,4.28
2023-02-07T01:19:05.310Z,4.80
2023-02-07T01:21:33.397Z,3.95
2023-02-07T01:24:01.322Z,4.28
2023-02-07T01:26:28.376Z,4.38
2023-02-07T01:28:56.036Z,3.78
2023-02-07T01:31:23.717Z,4.63
2023-02-07T01:33:54.508Z,5.40
2023-02-07T01:36:21.453Z,4.47
2023-02-07T01:38:49.531Z,4.53
2023-02-07T01:41:16.126Z,4.07
2023-02-07T01:43:58.373Z,4.53
2023-02-07T01:46:25.535Z,3.67
2023-02-07T01:48:53.104Z,4.38
2023-02-07T01:51:20.160Z,4.57
2023-02-07T01:53:49.277Z,2.85
2023-02-07T01:56:30.999Z,4.15
2023-02-07T01:59:00.520Z,4.55
2023-02-07T02:01:27.192Z,3.92
2023-02-07T02:03:55.786Z,4.20
2023-02-07T02:06:25.707Z,3.92
2023-02-07T02:08:56.806Z,5.18
2023-02-07T02:12:05.476Z,3.17
2023-02-07T02:14:49.470Z,3.83
2023-02-07T02:17:24.533Z,3.80
2023-02-07T02:20:29.841Z,3.13
2023-02-07T02:23:10.776Z,3.95
2023-02-07T02:25:59.550Z,3.80
2023-02-07T02:29:14.258Z,2.60
2023-02-07T02:32:12.894Z,3.33
2023-02-07T02:34:48.005Z,3.70
2023-02-07T02:37:23.165Z,3.78
2023-02-07T02:39:57.835Z,3.20
2023-02-07T02:42:30.025Z,3.33
2023-02-07T02:45:02.900Z,3.97
2023-02-07T02:47:32.466Z,5.72
2023-02-07T02:50:01.100Z,3.72
2023-02-07T02:52:48.780Z,4.10
2023-02-07T02:55:36.374Z,4.38
2023-02-07T02:58:08.323Z,5.13
2023-02-07T03:00:46.077Z,5.65
2023-02-07T03:03:51.317Z,4.80
2023-02-07T03:06:34.737Z,5.30
2023-02-07T03:09:15.020Z,5.25
2023-02-07T03:11:51.142Z,3.85
2023-02-07T03:14:25.638Z,6.00
2023-02-07T03:16:59.229Z,5.80
2023-02-07T03:19:30.770Z,5.95
2023-02-07T03:22:10.324Z,6.15
2023-02-07T03:24:41.358Z,4.55
2023-02-07T03:27:11.530Z,5.25
2023-02-07T03:29:42.812Z,5.55
2023-02-07T03:32:11.392Z,5.60
2023-02-07T03:34:43.682Z,6.20
2023-02-07T03:37:20.243Z,5.70
2023-02-07T03:42:21.319Z,5.43
2023-02-07T03:44:50.775Z,4.20
2023-02-07T03:47:18.606Z,5.65
2023-02-07T03:49:45.417Z,5.22
2023-02-07T03:52:13.402Z,4.88
2023-02-07T03:54:40.071Z,5.68
2023-02-07T03:57:06.732Z,5.43
2023-02-07T03:59:33.455Z,5.75
2023-02-07T04:02:00.676Z,5.20
2023-02-07T04:04:27.333Z,5.70
2023-02-07T04:06:54.165Z,6.25
2023-02-07T04:09:22.268Z,4.40
2023-02-07T04:11:49.168Z,5.25
2023-02-07T04:14:16.052Z,5.40
2023-02-07T04:16:42.708Z,5.22
2023-02-07T04:19:09.388Z,5.78
2023-02-07T04:21:36.022Z,5.30
2023-02-07T04:24:02.632Z,5.75
2023-02-07T04:26:30.616Z,5.18
2023-02-07T04:28:57.345Z,5.35
2023-02-07T04:31:23.971Z,4.53
2023-02-07T04:33:50.628Z,5.40
2023-02-07T04:36:17.921Z,5.35
2023-02-07T04:38:45.132Z,6.05
2023-02-07T04:41:12.078Z,5.82
2023-02-07T04:43:40.129Z,5.93
2023-02-07T04:46:07.710Z,5.20
2023-02-07T04:48:36.607Z,4.97
2023-02-07T04:51:03.474Z,6.28
2023-02-07T04:53:30.125Z,5.85
2023-02-07T04:55:56.779Z,5.88
2023-02-07T04:58:24.084Z,5.03
2023-02-07T05:00:52.658Z,5.55
2023-02-07T05:03:19.531Z,5.75
2023-02-07T05:05:46.479Z,5.32
2023-02-07T05:08:13.766Z,5.03
2023-02-07T05:10:41.018Z,5.50
2023-02-07T05:13:07.838Z,5.10
2023-02-07T05:15:34.822Z,7.10
2023-02-07T05:18:03.183Z,5.40
2023-02-07T05:20:29.916Z,6.85
2023-02-07T05:22:56.572Z,5.85
2023-02-07T05:25:23.257Z,5.30
2023-02-07T05:27:50.021Z,5.85
2023-02-07T05:30:17.274Z,4.63
2023-02-07T05:33:02.591Z,6.68
2023-02-07T05:35:31.070Z,6.35
2023-02-07T05:37:58.042Z,6.13
2023-02-07T05:40:25.996Z,4.82
2023-02-07T05:42:52.815Z,4.72
2023-02-07T05:45:21.449Z,5.25
2023-02-07T05:47:48.400Z,6.32
2023-02-07T05:50:15.263Z,5.07
2023-02-07T05:52:44.055Z,6.28
2023-02-07T05:55:13.004Z,6.85
2023-02-07T05:57:40.001Z,6.10
2023-02-07T06:00:08.442Z,7.00
2023-02-07T06:02:38.553Z,8.18
2023-02-07T06:05:05.861Z,7.47
2023-02-07T06:07:32.581Z,5.47
2023-02-07T06:10:00.553Z,6.60
2023-02-07T06:12:27.199Z,5.35
2023-02-07T06:14:53.830Z,6.82
2023-02-07T06:17:20.568Z,6.53
2023-02-07T06:19:48.772Z,6.88
2023-02-07T06:22:15.466Z,5.85
2023-02-07T06:24:42.146Z,6.78
2023-02-07T06:27:10.410Z,8.30
2023-02-07T06:29:37.235Z,6.28
2023-02-07T06:32:07.395Z,5.40
2023-02-07T06:34:34.133Z,5.50
2023-02-07T06:37:00.830Z,6.07
2023-02-07T06:39:27.603Z,5.68
2023-02-07T06:41:54.262Z,5.25
2023-02-07T06:44:22.228Z,6.53
2023-02-07T06:46:48.922Z,4.90
2023-02-07T06:49:15.593Z,5.05
2023-02-07T06:51:42.452Z,5.32
2023-02-07T06:54:10.309Z,5.95
2023-02-07T06:56:37.046Z,6.15
2023-02-07T06:59:03.717Z,5.72
2023-02-07T07:01:31.938Z,5.22
2023-02-07T07:03:59.513Z,4.22
2023-02-07T07:06:26.577Z,5.78
2023-02-07T07:08:53.327Z,5.55
2023-02-07T07:11:20.363Z,7.50
2023-02-07T07:13:47.310Z,5.53
2023-02-07T07:16:14.553Z,7.05
2023-02-07T07:18:42.987Z,6.72
2023-02-07T07:21:10.888Z,7.60
2023-02-07T07:23:37.493Z,7.95
2023-02-07T07:26:04.397Z,7.53
2023-02-07T07:28:31.178Z,7.15
2023-02-07T07:31:02.402Z,7.88
2023-02-07T07:33:29.238Z,5.88
2023-02-07T07:35:58.791Z,7.30
2023-02-07T07:38:27.025Z,7.20
2023-02-07T07:40:53.909Z,5.32
2023-02-07T07:43:20.954Z,7.22
2023-02-07T07:45:52.468Z,6.25
2023-02-07T07:48:19.292Z,6.32
2023-02-07T07:50:45.898Z,9.18
2023-02-07T07:53:14.735Z,7.53
2023-02-07T07:55:41.486Z,7.53
2023-02-07T07:58:08.384Z,8.75
2023-02-07T08:00:35.211Z,8.35
2023-02-07T08:03:02.123Z,8.40
2023-02-07T08:05:28.796Z,5.57
2023-02-07T08:07:55.530Z,6.45
2023-02-07T08:10:24.002Z,7.32
2023-02-07T08:12:50.652Z,7.72
2023-02-07T08:15:17.819Z,6.70
2023-02-07T08:17:44.474Z,6.63
2023-02-07T08:20:12.652Z,6.38
2023-02-07T08:22:39.780Z,5.70
2023-02-07T08:25:07.598Z,6.38
2023-02-07T08:27:35.908Z,5.13
2023-02-07T08:30:03.917Z,6.88
2023-02-07T08:32:30.726Z,5.68
2023-02-07T08:34:57.391Z,5.75
2023-02-07T08:37:24.589Z,6.72
2023-02-07T08:39:53.227Z,6.13
2023-02-07T08:42:20.949Z,5.93
2023-02-07T08:44:49.985Z,6.20
2023-02-07T08:47:18.033Z,4.97
2023-02-07T08:49:46.057Z,5.57
2023-02-07T08:52:13.077Z,6.05
2023-02-07T08:54:39.835Z,5.72
2023-02-07T08:57:06.571Z,6.10
2023-02-07T08:59:34.453Z,6.32
2023-02-07T09:02:03.342Z,6.03
2023-02-07T09:04:30.195Z,7.13
2023-02-07T09:06:56.925Z,6.68
2023-02-07T09:09:25.524Z,5.80
2023-02-07T09:11:52.603Z,4.50
2023-02-07T09:14:19.926Z,5.55
2023-02-07T09:16:46.910Z,4.80
2023-02-07T09:19:15.270Z,4.88
2023-02-07T09:21:42.032Z,4.25
2023-02-07T09:24:10.246Z,4.32
2023-02-07T09:26:38.958Z,4.22
2023-02-07T09:29:06.355Z,4.82
2023-02-07T09:31:34.556Z,3.75
2023-02-07T09:34:02.707Z,4.65
2023-02-07T09:36:31.530Z,5.25
2023-02-07T09:38:58.830Z,4.07
2023-02-07T09:41:33.932Z,3.67
2023-02-07T09:44:10.072Z,3.92
2023-02-07T09:49:11.167Z,3.85
2023-02-07T09:51:41.077Z,3.33
2023-02-07T09:54:20.369Z,4.30
2023-02-07T09:56:47.691Z,4.00
2023-02-07T09:59:23.246Z,3.53
2023-02-07T10:01:56.486Z,3.58
2023-02-07T10:04:30.753Z,3.63
2023-02-07T10:07:00.134Z,4.22
2023-02-07T10:09:31.376Z,3.83
2023-02-07T10:12:05.994Z,4.50
2023-02-07T10:14:55.159Z,4.13
2023-02-07T10:20:07.322Z,4.15
2023-02-07T10:22:44.783Z,3.33
2023-02-07T10:25:27.237Z,3.78
2023-02-07T10:28:05.754Z,2.97
2023-02-07T10:30:37.645Z,4.38
2023-02-07T10:33:12.525Z,3.80
2023-02-07T10:35:39.734Z,4.28
2023-02-07T10:38:21.645Z,4.03
2023-02-07T10:40:52.699Z,4.10
2023-02-07T10:43:28.187Z,3.90
2023-02-07T10:46:04.525Z,3.55
2023-02-07T10:48:33.917Z,3.08
2023-02-07T10:51:04.403Z,4.40
2023-02-07T10:54:00.578Z,4.70
2023-02-07T10:56:29.115Z,3.83
2023-02-07T10:58:59.047Z,4.32
2023-02-07T11:01:28.227Z,3.95
2023-02-07T11:03:55.667Z,3.97
2023-02-07T11:06:27.298Z,3.45
2023-02-07T11:09:22.260Z,4.03
2023-02-07T11:11:50.863Z,4.25
2023-02-07T11:14:21.050Z,4.57
2023-02-07T11:16:48.737Z,4.53
2023-02-07T11:19:20.492Z,3.78
2023-02-07T11:21:50.407Z,4.40
2023-02-07T11:24:25.787Z,4.38
2023-02-07T11:26:57.669Z,4.07
2023-02-07T11:29:26.189Z,4.57
2023-02-07T11:31:56.384Z,4.15
2023-02-07T11:34:44.350Z,4.35
2023-02-07T11:37:26.839Z,3.90
2023-02-07T11:42:44.434Z,4.15
2023-02-07T11:45:14.827Z,4.28
2023-02-07T11:47:44.989Z,3.83
2023-02-07T11:50:18.780Z,4.22
2023-02-07T11:52:51.490Z,3.90
2023-02-07T11:55:23.489Z,4.10
2023-02-07T11:57:50.352Z,3.78
2023-02-07T12:00:22.993Z,4.60
2023-02-07T12:02:59.363Z,3.95
2023-02-07T12:05:28.501Z,3.90
2023-02-07T12:08:02.439Z,3.67
2023-02-07T12:10:35.543Z,3.20
2023-02-07T12:13:07.162Z,3.58
2023-02-07T12:15:38.197Z,3.42
2023-02-07T12:18:11.237Z,3.78
2023-02-07T12:20:44.669Z,3.70
2023-02-07T12:23:40.915Z,3.63
2023-02-07T12:26:17.699Z,3.08
2023-02-07T12:28:54.883Z,3.60
2023-02-07T12:31:37.648Z,3.70
2023-02-07T12:34:12.162Z,3.58
2023-02-07T12:36:45.062Z,3.38
2023-02-07T12:39:20.295Z,3.47
2023-02-07T12:41:51.700Z,3.80
2023-02-07T12:44:24.922Z,3.63
2023-02-07T12:47:01.353Z,4.00
2023-02-07T12:49:46.989Z,3.47
2023-02-07T12:52:25.198Z,4.50
2023-02-07T12:55:08.067Z,3.67
2023-02-07T12:57:43.436Z,4.50
2023-02-07T13:00:18.637Z,3.47
2023-02-07T13:02:59.562Z,3.97
2023-02-07T13:05:42.301Z,3.30
2023-02-07T13:12:07.580Z,3.72
2023-02-07T13:14:49.330Z,3.10
2023-02-07T13:17:48.160Z,3.70
2023-02-07T13:20:27.336Z,3.80
2023-02-07T13:22:57.355Z,3.25
2023-02-07T13:25:27.965Z,3.30
2023-02-07T13:27:57.926Z,3.60
2023-02-07T13:30:29.797Z,3.40
2023-02-07T13:33:24.834Z,3.55
2023-02-07T13:35:53.978Z,3.60
2023-02-07T13:38:34.381Z,3.33
2023-02-07T13:41:06.184Z,3.05
2023-02-07T13:43:43.768Z,2.95
2023-02-07T13:46:30.558Z,3.35
2023-02-07T13:49:06.658Z,2.92
2023-02-07T13:57:16.142Z,2.95
2023-02-07T13:59:43.738Z,2.85
2023-02-07T14:02:18.028Z,2.90
2023-02-07T14:04:51.511Z,3.83
2023-02-07T14:07:23.822Z,3.70
2023-02-07T14:09:50.820Z,3.28
2023-02-07T14:12:22.659Z,3.10
2023-02-07T14:15:01.775Z,3.20
2023-02-07T14:17:59.696Z,3.33
2023-02-07T14:20:47.878Z,3.30
2023-02-07T14:23:16.585Z,2.78
2023-02-07T14:25:45.559Z,5.47
2023-02-07T14:28:31.497Z,3.33
2023-02-07T14:31:01.847Z,3.22
2023-02-07T14:33:34.553Z,3.28
2023-02-07T14:36:25.295Z,3.35
2023-02-07T14:39:22.438Z,2.90
2023-02-07T14:41:52.413Z,3.30
2023-02-07T14:44:29.005Z,2.88
2023-02-07T14:46:58.886Z,2.45
2023-02-07T14:49:32.545Z,3.15
2023-02-07T14:52:02.411Z,4.13
2023-02-07T14:54:38.594Z,3.72
2023-02-07T14:57:16.518Z,3.83
2023-02-07T14:59:49.368Z,3.75
2023-02-07T15:02:35.250Z,3.45
2023-02-07T15:05:23.018Z,4.13
2023-02-07T15:07:56.501Z,2.88
2023-02-07T15:10:26.865Z,3.33
2023-02-07T15:12:54.718Z,3.67
2023-02-07T15:15:25.773Z,4.32
2023-02-07T15:17:54.760Z,4.07
2023-02-07T15:20:27.912Z,3.08
2023-02-07T15:22:55.954Z,3.15
2023-02-07T15:25:22.885Z,2.70
2023-02-07T15:28:01.483Z,3.63
2023-02-07T15:30:29.332Z,3.00
2023-02-07T15:32:57.524Z,3.53
2023-02-07T15:35:28.248Z,4.47
2023-02-07T15:38:12.822Z,3.53
2023-02-07T15:40:40.070Z,3.22
2023-02-07T15:43:23.863Z,4.00
2023-02-07T15:46:00.215Z,2.90
2023-02-07T15:48:28.269Z,3.03
2023-02-07T15:50:58.796Z,3.40
2023-02-07T15:53:30.080Z,3.80
2023-02-07T15:55:57.341Z,3.38
2023-02-07T15:58:27.180Z,3.70
2023-02-07T16:01:01.435Z,5.72
2023-02-07T16:03:30.425Z,5.40
2023-02-07T16:06:17.878Z,3.95
2023-02-07T16:08:45.618Z,3.47
2023-02-07T16:11:15.896Z,3.97
2023-02-07T16:13:49.578Z,3.55
2023-02-07T16:16:19.928Z,3.90
2023-02-07T16:18:48.425Z,3.70
2023-02-07T16:21:19.751Z,3.55
2023-02-07T16:23:48.312Z,3.40
2023-02-07T16:26:17.942Z,4.50
2023-02-07T16:28:45.869Z,3.50
2023-02-07T16:31:13.897Z,3.92
2023-02-07T16:33:41.046Z,4.03
2023-02-07T16:36:14.522Z,4.05
2023-02-07T16:38:42.831Z,3.72
2023-02-07T16:41:23.061Z,4.38
2023-02-07T16:43:49.813Z,4.53
2023-02-07T16:46:16.736Z,4.03
2023-02-07T16:48:43.602Z,4.93
2023-02-07T16:51:10.297Z,3.80
2023-02-07T16:53:36.962Z,4.10
2023-02-07T16:56:07.039Z,3.33
2023-02-07T16:58:34.225Z,4.18
2023-02-07T17:01:02.728Z,3.55
2023-02-07T17:03:29.645Z,3.10
2023-02-07T17:05:56.305Z,3.78
2023-02-07T17:08:27.013Z,3.60
2023-02-07T17:10:58.523Z,3.97
2023-02-07T17:13:26.896Z,3.05
2023-02-07T17:15:54.325Z,3.25
2023-02-07T17:18:21.082Z,3.30
2023-02-07T17:20:48.454Z,2.75
2023-02-07T17:23:15.151Z,5.03
2023-02-07T17:25:42.698Z,2.97
2023-02-07T17:28:10.822Z,3.33
2023-02-07T17:30:41.500Z,3.88
2023-02-07T17:33:09.898Z,2.83
2023-02-07T17:35:37.911Z,3.08
2023-02-07T17:38:06.152Z,4.18
2023-02-07T17:40:36.536Z,3.80
2023-02-07T17:43:04.390Z,5.45
2023-02-07T17:45:33.189Z,2.95
2023-02-07T17:48:01.865Z,4.15
2023-02-07T17:50:32.093Z,4.97
2023-02-07T17:53:01.777Z,5.18
2023-02-07T17:55:29.007Z,4.68
2023-02-07T17:57:56.010Z,4.15
2023-02-07T18:00:25.037Z,4.60
2023-02-07T18:02:52.146Z,5.13
2023-02-07T18:05:20.849Z,4.93
2023-02-07T18:07:48.816Z,3.95
2023-02-07T18:10:18.731Z,4.93
2023-02-07T18:12:45.447Z,4.55
2023-02-07T18:15:12.796Z,3.67
2023-02-07T18:17:39.815Z,4.47
2023-02-07T18:20:11.072Z,4.68
2023-02-07T18:22:39.266Z,3.78
2023-02-07T18:25:06.663Z,4.78
2023-02-07T18:27:34.828Z,6.25
2023-02-07T18:30:01.643Z,4.10
2023-02-07T18:32:28.707Z,4.40
2023-02-07T18:34:55.352Z,6.68
2023-02-07T18:37:22.548Z,4.82
2023-02-07T18:39:50.806Z,3.65
2023-02-07T18:42:17.960Z,6.55
2023-02-07T18:44:45.106Z,5.05
2023-02-07T18:47:12.180Z,5.70
2023-02-07T18:49:39.131Z,5.32
2023-02-07T18:52:06.087Z,5.55
2023-02-07T18:54:32.973Z,4.68
2023-02-07T18:57:01.016Z,4.80
2023-02-07T18:59:27.956Z,3.90
2023-02-07T19:01:54.932Z,4.88
2023-02-07T19:04:21.868Z,3.65
2023-02-07T19:06:50.624Z,3.88
2023-02-07T19:09:18.532Z,4.57
2023-02-07T19:11:45.386Z,4.18
2023-02-07T19:14:18.034Z,4.72
2023-02-07T19:16:45.676Z,5.72
2023-02-07T19:19:14.128Z,4.00
2023-02-07T19:21:41.614Z,5.32
2023-02-07T19:24:18.424Z,4.60
2023-02-07T19:26:45.765Z,4.65
2023-02-07T19:29:15.939Z,4.72
2023-02-07T19:31:43.777Z,3.95
2023-02-07T19:34:11.568Z,4.53
2023-02-07T19:36:39.179Z,3.78
2023-02-07T19:39:06.908Z,5.40
2023-02-07T19:41:35.507Z,4.72
2023-02-07T19:44:02.645Z,5.53
2023-02-07T19:46:30.934Z,4.82
2023-02-07T19:48:58.465Z,5.60
2023-02-07T19:51:27.440Z,6.05
2023-02-07T19:53:55.491Z,5.40
2023-02-07T19:56:24.437Z,6.82
2023-02-07T19:58:52.968Z,6.30
2023-02-07T20:01:20.471Z,6.05
2023-02-07T20:03:51.321Z,6.63
2023-02-07T20:06:19.722Z,6.32
2023-02-07T20:08:46.458Z,7.10
2023-02-07T20:11:15.636Z,6.50
2023-02-07T20:13:44.624Z,6.35
2023-02-07T20:16:13.411Z,6.25
2023-02-07T20:18:40.574Z,7.13
2023-02-07T20:21:14.034Z,5.13
2023-02-07T20:23:42.120Z,5.57
2023-02-07T20:26:10.543Z,6.95
2023-02-07T20:28:38.286Z,5.55
2023-02-07T20:31:06.253Z,6.65
2023-02-07T20:33:35.050Z,5.65
2023-02-07T20:36:01.999Z,5.82
2023-02-07T20:38:30.531Z,6.47
2023-02-07T20:41:05.323Z,5.57
2023-02-07T20:43:32.301Z,6.03
2023-02-07T20:46:05.383Z,6.03
2023-02-07T20:48:32.150Z,6.57
2023-02-07T20:50:59.973Z,6.22
2023-02-07T20:53:26.995Z,6.55
2023-02-07T20:56:04.799Z,6.20
2023-02-07T20:58:33.042Z,4.78
2023-02-07T21:01:07.741Z,6.40
2023-02-07T21:03:35.288Z,5.63
2023-02-07T21:06:02.308Z,6.32
2023-02-07T21:08:30.105Z,5.13
2023-02-07T21:10:58.940Z,6.22
2023-02-07T21:13:27.434Z,7.50
2023-02-07T21:16:02.741Z,8.93
2023-02-07T21:18:31.056Z,5.65
2023-02-07T21:20:58.067Z,5.72
2023-02-07T21:23:25.008Z,6.55
2023-02-07T21:25:53.142Z,7.38
2023-02-07T21:28:21.401Z,7.18
2023-02-07T21:30:48.169Z,6.13
2023-02-07T21:33:14.868Z,6.00
2023-02-07T21:35:41.693Z,6.22
2023-02-07T21:38:08.546Z,7.20
2023-02-07T21:40:35.421Z,5.82
2023-02-07T21:43:02.314Z,7.03
2023-02-07T21:45:30.813Z,6.70
2023-02-07T21:47:57.821Z,5.35
2023-02-07T21:50:24.699Z,6.05
2023-02-07T21:52:51.324Z,6.30
2023-02-07T21:55:18.325Z,6.00
2023-02-07T21:57:45.025Z,6.30
2023-02-07T22:00:13.254Z,6.88
2023-02-07T22:02:42.030Z,5.72
2023-02-07T22:05:08.899Z,5.97
2023-02-07T22:07:35.616Z,5.60
2023-02-07T22:10:02.371Z,5.97
2023-02-07T22:12:29.092Z,5.32
2023-02-07T22:14:55.792Z,6.10
2023-02-07T22:17:23.432Z,7.35
2023-02-07T22:19:51.791Z,5.63
2023-02-07T22:22:18.901Z,5.95
2023-02-07T22:24:45.744Z,6.85
2023-02-07T22:27:12.578Z,6.25
2023-02-07T22:29:40.520Z,7.45
2023-02-07T22:32:07.217Z,5.88
2023-02-07T22:34:34.889Z,7.05
2023-02-07T22:37:03.031Z,6.03
2023-02-07T22:39:29.801Z,5.20
2023-02-07T22:41:57.143Z,5.75
2023-02-07T22:44:24.904Z,5.90
2023-02-07T22:46:51.945Z,5.15
2023-02-07T22:49:18.788Z,6.00
2023-02-07T22:51:46.134Z,5.32
2023-02-07T22:54:18.465Z,7.13
2023-02-07T22:56:46.194Z,6.28
2023-02-07T22:59:13.501Z,6.05
2023-02-07T23:01:41.095Z,5.47
2023-02-07T23:04:09.396Z,6.05
2023-02-07T23:06:36.181Z,5.30
2023-02-07T23:09:05.635Z,5.75
2023-02-07T23:11:34.463Z,5.43
2023-02-07T23:14:01.669Z,5.68
2023-02-07T23:16:30.573Z,5.05
2023-02-07T23:19:03.276Z,5.18
2023-02-07T23:21:29.994Z,4.28
2023-02-07T23:23:58.534Z,6.50
2023-02-07T23:26:27.965Z,5.20
2023-02-07T23:28:56.638Z,4.53
2023-02-07T23:31:25.158Z,6.72
2023-02-07T23:33:53.152Z,5.13
2023-02-07T23:36:21.289Z,5.10
2023-02-07T23:38:50.109Z,5.78
2023-02-07T23:41:17.622Z,5.22
2023-02-07T23:43:46.710Z,4.72
2023-02-07T23:46:16.582Z,5.28
2023-02-07T23:48:44.444Z,5.43
2023-02-07T23:51:12.795Z,4.80
2023-02-07T23:53:39.863Z,5.18
2023-02-07T23:56:08.037Z,4.32
2023-02-07T23:58:34.739Z,4.82
